createdAt,value
2017-01-11T00:00:02.446Z,1.02
2017-01-11T00:10:02.905Z,1.03
2017-01-11T00:20:02.385Z,1.03
2017-01-11T00:30:02.804Z,1.01
2017-01-11T00:40:02.213Z,0.99
2017-01-11T00:50:02.610Z,0.97
2017-01-11T01:00:03.051Z,0.96
2017-01-11T01:10:02.439Z,0.95
2017-01-11T01:20:02.975Z,0.91
2017-01-11T01:30:02.378Z,0.93
2017-01-11T01:40:02.791Z,0.92
2017-01-11T01:50:02.231Z,0.93
2017-01-11T02:00:02.635Z,0.92
2017-01-11T02:10:03.065Z,0.91
2017-01-11T02:20:02.584Z,0.92
2017-01-11T02:30:02.998Z,0.92
2017-01-11T02:40:02.310Z,0.92
2017-01-11T02:50:02.748Z,0.93
2017-01-11T03:00:02.137Z,0.91
2017-01-11T03:10:02.507Z,0.91
2017-01-11T03:20:03.008Z,0.91
2017-01-11T03:30:02.368Z,0.9
2017-01-11T03:40:02.813Z,0.9
2017-01-11T03:50:02.239Z,0.89
2017-01-11T04:00:02.640Z,0.86
2017-01-11T04:10:03.064Z,0.87
2017-01-11T04:20:02.600Z,0.88
2017-01-11T04:30:02.978Z,0.86
2017-01-11T04:40:02.395Z,0.84
2017-01-11T04:50:02.894Z,0.84
2017-01-11T05:00:02.328Z,0.88
2017-01-11T05:10:02.767Z,0.9
2017-01-11T05:20:02.258Z,0.88
2017-01-11T05:30:02.654Z,0.84
2017-01-11T05:40:03.027Z,0.83
2017-01-11T05:50:02.445Z,0.81
2017-01-11T06:00:02.465Z,0.83
2017-01-11T06:10:02.864Z,0.86
2017-01-11T06:20:02.411Z,0.84
2017-01-11T06:30:02.783Z,0.84
2017-01-11T06:40:02.168Z,0.87
2017-01-11T06:50:02.603Z,0.88
2017-01-11T07:00:03.034Z,0.91
2017-01-11T07:10:02.402Z,0.94
2017-01-11T07:20:02.950Z,0.97
2017-01-11T07:30:02.359Z,1.04
2017-01-11T07:40:02.775Z,1.07
2017-01-11T07:50:02.208Z,1.08
2017-01-11T08:00:02.582Z,1.14
2017-01-11T08:10:03.003Z,1.13
2017-01-11T08:20:02.461Z,1.17
2017-01-11T08:30:02.846Z,1.26
2017-01-11T08:40:02.223Z,1.36
2017-01-11T08:50:02.612Z,1.46
2017-01-11T09:00:03.032Z,1.69
2017-01-11T09:10:02.402Z,1.99
2017-01-11T09:20:02.913Z,2.15
2017-01-11T09:30:02.328Z,2.45
2017-01-11T09:40:02.765Z,2.79
2017-01-11T09:50:02.186Z,2.9
2017-01-11T10:00:02.578Z,2.96
2017-01-11T10:10:03.014Z,2.95
2017-01-11T10:20:02.397Z,2.94
2017-01-11T10:30:02.764Z,2.97
2017-01-11T10:40:02.144Z,3.02
2017-01-11T10:50:02.560Z,2.98
2017-01-11T11:00:02.935Z,2.93
2017-01-11T11:10:02.324Z,2.87
2017-01-11T11:20:02.822Z,2.73
2017-01-11T11:30:02.227Z,2.61
2017-01-11T11:40:02.603Z,2.54
2017-01-11T11:50:03.053Z,2.52
2017-01-11T12:00:02.393Z,2.52
2017-01-11T12:10:02.792Z,2.55
2017-01-11T12:20:02.303Z,2.71
2017-01-11T12:30:02.710Z,2.82
2017-01-11T12:40:03.124Z,2.85
2017-01-11T12:50:02.553Z,2.87
2017-01-11T13:00:02.957Z,2.91
2017-01-11T13:10:02.366Z,3.13
2017-01-11T13:20:02.933Z,3.29
2017-01-11T13:30:02.629Z,3.53
2017-01-11T13:40:02.238Z,3.8
2017-01-11T13:50:02.651Z,4.09
2017-01-11T14:00:03.040Z,4.58
2017-01-11T14:10:02.455Z,4.88
2017-01-11T14:20:02.964Z,5.2
2017-01-11T14:30:02.364Z,5.38
2017-01-11T14:40:02.793Z,5.48
2017-01-11T14:50:02.203Z,5.33
2017-01-11T15:00:02.583Z,5.28
2017-01-11T15:10:03.017Z,5.33
2017-01-11T15:20:02.496Z,5.26
2017-01-11T15:30:02.918Z,5.21
2017-01-11T15:40:02.343Z,4.91
2017-01-11T15:50:02.780Z,4.86
2017-01-11T16:00:02.215Z,4.69
2017-01-11T16:10:02.642Z,4.52
2017-01-11T16:20:03.173Z,4.42
2017-01-11T16:30:02.569Z,4.41
2017-01-11T16:40:03.057Z,3.62
2017-01-11T16:50:02.621Z,3.83
2017-01-11T17:00:03.014Z,3.74
2017-01-11T17:10:03.151Z,3.61
2017-01-11T17:20:02.284Z,3.67
2017-01-11T17:30:03.906Z,3.7
2017-01-11T17:40:02.295Z,3.72
2017-01-11T17:50:02.721Z,3.69
2017-01-11T18:00:03.133Z,3.63
2017-01-11T18:10:02.534Z,3.7
2017-01-11T18:20:03.000Z,3.89
2017-01-11T18:30:02.724Z,4.03
2017-01-11T18:40:02.158Z,4.01
2017-01-11T18:50:02.564Z,4.06
2017-01-11T19:00:02.958Z,4.02
2017-01-11T19:10:02.359Z,4.05
2017-01-11T19:20:02.992Z,4.12
2017-01-11T19:30:02.367Z,4.12
2017-01-11T19:40:02.770Z,4.21
2017-01-11T19:50:02.226Z,4.43
2017-01-11T20:00:02.619Z,4.58
2017-01-11T20:10:03.027Z,4.47
2017-01-11T20:20:02.556Z,4.37
2017-01-11T20:30:02.998Z,4.37
2017-01-11T20:40:02.389Z,4.38
2017-01-11T20:50:02.929Z,4.43
2017-01-11T21:00:02.395Z,4.46
2017-01-11T21:10:02.882Z,4.45
2017-01-11T21:20:02.448Z,4.35
2017-01-11T21:30:02.887Z,4.33
2017-01-11T21:40:02.382Z,4.42
2017-01-11T21:50:02.840Z,4.38
2017-01-11T22:00:02.252Z,4.36
2017-01-11T22:10:02.691Z,4.33
2017-01-11T22:20:02.192Z,4.23
2017-01-11T22:30:02.598Z,4.18
2017-01-11T22:40:03.030Z,4.03
2017-01-11T22:50:02.476Z,3.98
2017-01-11T23:00:02.943Z,4.09
2017-01-11T23:10:02.342Z,3.92
2017-01-11T23:20:02.830Z,3.72
2017-01-11T23:30:02.235Z,3.65
2017-01-11T23:40:02.640Z,3.77
2017-01-11T23:50:03.080Z,3.84
